QTR74N LTFM-OTHH
Flight info
| Callsign | QTR74N |
|---|---|
| Flight time | 3h 20m |
| Altitude | 35000 |
| Route | RATVU1D/35L RATVU UT35 UNEPI UT38 VESAR L620 ALSUS M978 NIKAS R785 RASLI P559 TRF V45 ITIXI M691 SILBA H979 DASVA N318 HAYYA |
| Aircraft | B77W/H-SDE1E2E3FGHIJ2J3J4J5M1RWXY/LB1D1 |
Departure
| Time | 2026-05-05 10:34 |
|---|---|
| Airport | İstanbul Airport (LTFM) |
Arrival
| Time | 2026-05-05 13:54 |
|---|---|
| Airport | Hamad International Airport (OTHH) |
| Time | Latitude | Longitude | Altitude | Speed | Heading |
|---|---|---|---|---|---|
| 2026-05-05 10:07 | 41.26788 | 28.73614 | 339 ft | 0 kts | 179° |
| 2026-05-05 10:25 | 41.26794 | 28.73614 | 339 ft | 2 kts | 177° |
| 2026-05-05 10:25 | 41.26811 | 28.73614 | 333 ft | 2 kts | 179° |
| 2026-05-05 10:25 | 41.26827 | 28.73614 | 333 ft | 2 kts | 180° |
| 2026-05-05 10:25 | 41.26844 | 28.73615 | 333 ft | 2 kts | 200° |
| 2026-05-05 10:26 | 41.26859 | 28.73625 | 333 ft | 2 kts | 217° |
| 2026-05-05 10:26 | 41.26870 | 28.73640 | 333 ft | 2 kts | 247° |
| 2026-05-05 10:26 | 41.26873 | 28.73650 | 333 ft | 0 kts | 264° |
| 2026-05-05 10:28 | 41.26873 | 28.73648 | 333 ft | 1 kts | 268° |
| 2026-05-05 10:29 | 41.26873 | 28.73629 | 333 ft | 3 kts | 269° |
| 2026-05-05 10:29 | 41.26872 | 28.73586 | 334 ft | 6 kts | 269° |
| 2026-05-05 10:29 | 41.26871 | 28.73515 | 335 ft | 10 kts | 269° |
| 2026-05-05 10:29 | 41.26869 | 28.73370 | 335 ft | 21 kts | 269° |
| 2026-05-05 10:30 | 41.26867 | 28.73162 | 336 ft | 23 kts | 269° |
| 2026-05-05 10:30 | 41.26865 | 28.73027 | 336 ft | 7 kts | 269° |
| 2026-05-05 10:30 | 41.26835 | 28.72989 | 336 ft | 7 kts | 185° |
| 2026-05-05 10:30 | 41.26784 | 28.72990 | 337 ft | 8 kts | 178° |
| 2026-05-05 10:31 | 41.26691 | 28.72993 | 338 ft | 16 kts | 179° |
| 2026-05-05 10:31 | 41.26629 | 28.72995 | 335 ft | 7 kts | 179° |
| 2026-05-05 10:31 | 41.26597 | 28.72961 | 335 ft | 7 kts | 259° |
| 2026-05-05 10:31 | 41.26595 | 28.72897 | 335 ft | 7 kts | 269° |
| 2026-05-05 10:32 | 41.26594 | 28.72803 | 336 ft | 13 kts | 269° |
| 2026-05-05 10:32 | 41.26592 | 28.72664 | 339 ft | 14 kts | 269° |
| 2026-05-05 10:32 | 41.26590 | 28.72569 | 339 ft | 6 kts | 269° |
| 2026-05-05 10:32 | 41.26607 | 28.72523 | 333 ft | 6 kts | 333° |
| 2026-05-05 10:33 | 41.26650 | 28.72517 | 334 ft | 6 kts | 357° |
| 2026-05-05 10:33 | 41.26784 | 28.72512 | 335 ft | 42 kts | 359° |
| 2026-05-05 10:33 | 41.27325 | 28.72499 | 335 ft | 113 kts | 359° |
| 2026-05-05 10:33 | 41.28310 | 28.72470 | 339 ft | 159 kts | 358° |
| 2026-05-05 10:34 | 41.29423 | 28.72416 | 397 ft | 159 kts | 358° |
| 2026-05-05 10:34 | 41.30518 | 28.72388 | 479 ft | 154 kts | 360° |
| 2026-05-05 10:34 | 41.31630 | 28.72412 | 626 ft | 176 kts | 1° |
| 2026-05-05 10:34 | 41.32900 | 28.72454 | 1923 ft | 180 kts | 2° |
| 2026-05-05 10:35 | 41.34160 | 28.72506 | 3490 ft | 182 kts | 1° |
| 2026-05-05 10:35 | 41.35439 | 28.72403 | 4723 ft | 188 kts | 342° |
| 2026-05-05 10:35 | 41.36603 | 28.71438 | 5050 ft | 213 kts | 317° |
| 2026-05-05 10:35 | 41.37686 | 28.69940 | 5282 ft | 235 kts | 323° |
| 2026-05-05 10:36 | 41.38905 | 28.68373 | 5653 ft | 253 kts | 303° |
| 2026-05-05 10:36 | 41.39333 | 28.66056 | 6340 ft | 271 kts | 268° |
| 2026-05-05 10:36 | 41.38897 | 28.63578 | 7070 ft | 277 kts | 259° |
| 2026-05-05 10:36 | 41.38534 | 28.61035 | 7797 ft | 281 kts | 268° |
| 2026-05-05 10:37 | 41.38199 | 28.58483 | 8548 ft | 287 kts | 251° |
| 2026-05-05 10:37 | 41.36984 | 28.56341 | 9238 ft | 304 kts | 218° |
| 2026-05-05 10:37 | 41.35046 | 28.55189 | 10050 ft | 311 kts | 191° |
| 2026-05-05 10:37 | 41.32867 | 28.55037 | 10644 ft | 320 kts | 179° |
| 2026-05-05 10:38 | 41.30552 | 28.55107 | 10839 ft | 347 kts | 178° |
| 2026-05-05 10:38 | 41.28050 | 28.55192 | 11064 ft | 373 kts | 178° |
| 2026-05-05 10:38 | 41.25409 | 28.55609 | 11313 ft | 391 kts | 166° |
| 2026-05-05 10:38 | 41.22750 | 28.56508 | 12014 ft | 399 kts | 163° |
| 2026-05-05 10:39 | 41.20087 | 28.57661 | 12861 ft | 404 kts | 156° |
| 2026-05-05 10:39 | 41.17506 | 28.59162 | 13789 ft | 407 kts | 153° |
| 2026-05-05 10:39 | 41.14946 | 28.60786 | 14609 ft | 410 kts | 152° |
| 2026-05-05 10:39 | 41.12362 | 28.62469 | 15385 ft | 415 kts | 152° |
| 2026-05-05 10:40 | 41.09751 | 28.64171 | 16159 ft | 421 kts | 152° |
| 2026-05-05 10:40 | 41.07114 | 28.65875 | 16931 ft | 426 kts | 153° |
| 2026-05-05 10:40 | 41.04419 | 28.67598 | 17714 ft | 431 kts | 153° |
| 2026-05-05 10:40 | 41.01702 | 28.69321 | 18468 ft | 435 kts | 153° |
| 2026-05-05 10:41 | 40.98951 | 28.71056 | 19142 ft | 439 kts | 154° |
| 2026-05-05 10:41 | 40.96187 | 28.72792 | 19841 ft | 443 kts | 154° |
| 2026-05-05 10:41 | 40.93376 | 28.74553 | 20526 ft | 446 kts | 154° |
| 2026-05-05 10:41 | 40.90558 | 28.76316 | 21199 ft | 450 kts | 155° |
| 2026-05-05 10:42 | 40.84836 | 28.79891 | 22456 ft | 459 kts | 155° |
| 2026-05-05 10:42 | 40.81934 | 28.81702 | 23066 ft | 463 kts | 156° |
| 2026-05-05 10:42 | 40.79002 | 28.83531 | 23635 ft | 468 kts | 156° |
| 2026-05-05 10:43 | 40.76079 | 28.85352 | 24124 ft | 472 kts | 156° |
| 2026-05-05 10:43 | 40.73085 | 28.87215 | 24626 ft | 475 kts | 156° |
| 2026-05-05 10:43 | 40.70082 | 28.89083 | 25147 ft | 478 kts | 156° |
| 2026-05-05 10:43 | 40.67069 | 28.90955 | 25678 ft | 481 kts | 156° |
| 2026-05-05 10:44 | 40.64022 | 28.92847 | 26169 ft | 485 kts | 156° |
| 2026-05-05 10:44 | 40.60957 | 28.94748 | 26651 ft | 488 kts | 156° |
| 2026-05-05 10:44 | 40.57869 | 28.96661 | 27132 ft | 491 kts | 156° |
| 2026-05-05 10:44 | 40.54767 | 28.98580 | 27586 ft | 494 kts | 156° |
| 2026-05-05 10:45 | 40.51692 | 29.00481 | 28021 ft | 497 kts | 156° |
| 2026-05-05 10:45 | 40.48552 | 29.02420 | 28432 ft | 500 kts | 156° |
| 2026-05-05 10:45 | 40.45399 | 29.04365 | 28842 ft | 502 kts | 156° |
| 2026-05-05 10:45 | 40.42231 | 29.06318 | 29212 ft | 505 kts | 156° |
| 2026-05-05 10:46 | 40.39036 | 29.08285 | 29596 ft | 507 kts | 156° |
| 2026-05-05 10:46 | 40.35843 | 29.10249 | 29977 ft | 509 kts | 157° |
| 2026-05-05 10:46 | 40.33710 | 29.11560 | 30261 ft | 508 kts | 156° |
| 2026-05-05 10:46 | 40.29439 | 29.14182 | 30875 ft | 506 kts | 156° |
| 2026-05-05 10:47 | 40.27285 | 29.15504 | 31181 ft | 505 kts | 156° |
| 2026-05-05 10:47 | 40.24109 | 29.17451 | 31597 ft | 504 kts | 156° |
| 2026-05-05 10:47 | 40.20968 | 29.19373 | 31971 ft | 504 kts | 156° |
| 2026-05-05 10:47 | 40.17793 | 29.21314 | 32344 ft | 504 kts | 156° |
| 2026-05-05 10:48 | 40.14609 | 29.23258 | 32733 ft | 504 kts | 156° |
| 2026-05-05 10:48 | 40.11434 | 29.25195 | 33122 ft | 503 kts | 155° |
| 2026-05-05 10:48 | 40.08266 | 29.27126 | 33475 ft | 503 kts | 155° |
| 2026-05-05 10:48 | 40.05092 | 29.29059 | 33824 ft | 502 kts | 155° |
| 2026-05-05 10:49 | 40.01918 | 29.30990 | 34128 ft | 502 kts | 155° |
| 2026-05-05 10:49 | 39.98757 | 29.32911 | 34371 ft | 503 kts | 155° |
| 2026-05-05 10:49 | 39.95573 | 29.34844 | 34608 ft | 503 kts | 155° |
| 2026-05-05 10:49 | 39.92390 | 29.36774 | 34827 ft | 504 kts | 155° |
| 2026-05-05 10:50 | 39.89201 | 29.38692 | 34974 ft | 507 kts | 156° |
| 2026-05-05 10:50 | 39.82687 | 29.42290 | 35065 ft | 508 kts | 158° |
| 2026-05-05 10:51 | 39.76177 | 29.45790 | 35059 ft | 504 kts | 158° |
| 2026-05-05 10:51 | 39.69751 | 29.49302 | 35060 ft | 503 kts | 158° |
| 2026-05-05 10:52 | 39.63311 | 29.52826 | 35055 ft | 502 kts | 158° |
| 2026-05-05 10:52 | 39.56807 | 29.56141 | 35051 ft | 503 kts | 160° |
| 2026-05-05 10:53 | 39.50245 | 29.59363 | 35047 ft | 505 kts | 160° |
| 2026-05-05 10:53 | 39.43674 | 29.62609 | 35051 ft | 506 kts | 160° |
| 2026-05-05 10:54 | 39.37069 | 29.65895 | 35050 ft | 508 kts | 160° |
| 2026-05-05 10:54 | 39.30467 | 29.69181 | 35044 ft | 509 kts | 160° |
| 2026-05-05 10:55 | 39.23885 | 29.72448 | 35041 ft | 510 kts | 160° |
| 2026-05-05 10:55 | 39.17247 | 29.75735 | 35042 ft | 511 kts | 160° |
| 2026-05-05 10:56 | 39.10608 | 29.79015 | 35035 ft | 511 kts | 160° |
| 2026-05-05 10:56 | 39.03971 | 29.82288 | 35042 ft | 510 kts | 160° |
| 2026-05-05 10:57 | 38.97327 | 29.85558 | 35030 ft | 510 kts | 160° |
| 2026-05-05 10:57 | 38.90734 | 29.88797 | 35036 ft | 510 kts | 160° |
| 2026-05-05 10:58 | 38.84083 | 29.92017 | 35034 ft | 510 kts | 161° |
| 2026-05-05 10:58 | 38.77418 | 29.95170 | 35036 ft | 510 kts | 161° |
| 2026-05-05 10:59 | 38.70752 | 29.98319 | 35032 ft | 510 kts | 161° |
| 2026-05-05 10:59 | 38.64091 | 30.01472 | 35033 ft | 510 kts | 161° |
| 2026-05-05 11:00 | 38.57417 | 30.04628 | 35032 ft | 511 kts | 161° |
| 2026-05-05 11:00 | 38.50757 | 30.07771 | 35027 ft | 511 kts | 161° |
| 2026-05-05 11:01 | 38.44086 | 30.10913 | 35031 ft | 511 kts | 161° |
| 2026-05-05 11:01 | 38.37400 | 30.14056 | 35026 ft | 512 kts | 161° |
| 2026-05-05 11:02 | 38.30744 | 30.17160 | 35031 ft | 512 kts | 161° |
| 2026-05-05 11:02 | 38.27498 | 30.19032 | 35020 ft | 514 kts | 150° |
| 2026-05-05 11:02 | 38.24547 | 30.21613 | 35028 ft | 515 kts | 140° |
| 2026-05-05 11:03 | 38.19733 | 30.28314 | 35042 ft | 514 kts | 124° |
| 2026-05-05 11:03 | 38.15581 | 30.35739 | 35038 ft | 516 kts | 124° |
| 2026-05-05 11:04 | 38.11370 | 30.43139 | 35032 ft | 518 kts | 125° |
| 2026-05-05 11:04 | 38.07087 | 30.50502 | 35048 ft | 518 kts | 125° |
| 2026-05-05 11:05 | 38.02775 | 30.57873 | 35032 ft | 520 kts | 125° |
| 2026-05-05 11:05 | 37.98491 | 30.65199 | 35016 ft | 520 kts | 125° |
| 2026-05-05 11:06 | 37.94187 | 30.72553 | 35009 ft | 520 kts | 125° |
| 2026-05-05 11:06 | 37.89875 | 30.79912 | 35022 ft | 520 kts | 125° |
| 2026-05-05 11:07 | 37.85559 | 30.87269 | 35001 ft | 521 kts | 125° |
| 2026-05-05 11:07 | 37.81231 | 30.94626 | 34999 ft | 521 kts | 125° |
| 2026-05-05 11:08 | 37.76885 | 31.01998 | 35003 ft | 522 kts | 125° |
| 2026-05-05 11:08 | 37.72559 | 31.09318 | 34993 ft | 524 kts | 125° |
| 2026-05-05 11:09 | 37.68184 | 31.16706 | 35014 ft | 525 kts | 125° |
| 2026-05-05 11:09 | 37.63798 | 31.24096 | 35002 ft | 526 kts | 125° |
| 2026-05-05 11:10 | 37.59397 | 31.31494 | 34994 ft | 526 kts | 125° |
| 2026-05-05 11:10 | 37.55004 | 31.38864 | 35009 ft | 526 kts | 125° |
| 2026-05-05 11:11 | 37.50597 | 31.46239 | 35005 ft | 526 kts | 125° |
| 2026-05-05 11:11 | 37.46216 | 31.53556 | 35006 ft | 527 kts | 125° |
| 2026-05-05 11:12 | 37.41800 | 31.60917 | 35019 ft | 527 kts | 125° |
| 2026-05-05 11:12 | 37.37362 | 31.68298 | 35003 ft | 528 kts | 125° |
| 2026-05-05 11:13 | 37.32922 | 31.75651 | 35009 ft | 528 kts | 125° |
| 2026-05-05 11:13 | 37.28472 | 31.82990 | 35017 ft | 528 kts | 125° |
| 2026-05-05 11:14 | 37.24007 | 31.90341 | 35009 ft | 529 kts | 125° |
| 2026-05-05 11:14 | 37.19568 | 31.97640 | 35000 ft | 529 kts | 125° |
| 2026-05-05 11:15 | 37.15080 | 32.05001 | 35013 ft | 528 kts | 126° |
| 2026-05-05 11:15 | 37.10615 | 32.12311 | 35006 ft | 528 kts | 126° |
| 2026-05-05 11:16 | 37.06175 | 32.19563 | 35014 ft | 528 kts | 126° |
| 2026-05-05 11:16 | 37.01708 | 32.26842 | 35014 ft | 527 kts | 126° |
| 2026-05-05 11:17 | 36.97230 | 32.34126 | 35016 ft | 527 kts | 126° |
| 2026-05-05 11:17 | 36.92748 | 32.41403 | 35006 ft | 528 kts | 126° |
| 2026-05-05 11:18 | 36.88248 | 32.48692 | 35011 ft | 529 kts | 126° |
| 2026-05-05 11:18 | 36.83749 | 32.55967 | 35016 ft | 530 kts | 127° |
| 2026-05-05 11:19 | 36.79262 | 32.63216 | 35009 ft | 531 kts | 127° |
| 2026-05-05 11:19 | 36.74731 | 32.70521 | 34996 ft | 533 kts | 127° |
| 2026-05-05 11:20 | 36.70189 | 32.77829 | 35006 ft | 533 kts | 127° |
| 2026-05-05 11:20 | 36.65625 | 32.85156 | 34997 ft | 535 kts | 127° |
| 2026-05-05 11:21 | 36.61080 | 32.92435 | 34987 ft | 535 kts | 127° |
| 2026-05-05 11:21 | 36.56491 | 32.99772 | 34977 ft | 536 kts | 127° |
| 2026-05-05 11:22 | 36.51902 | 33.07091 | 34970 ft | 537 kts | 128° |
| 2026-05-05 11:22 | 36.47292 | 33.14428 | 34950 ft | 538 kts | 128° |
| 2026-05-05 11:23 | 36.42679 | 33.21755 | 34954 ft | 538 kts | 128° |
| 2026-05-05 11:23 | 36.38092 | 33.29027 | 34955 ft | 538 kts | 128° |
| 2026-05-05 11:24 | 36.33437 | 33.36365 | 34947 ft | 538 kts | 128° |
| 2026-05-05 11:24 | 36.28831 | 33.43599 | 34952 ft | 537 kts | 128° |
| 2026-05-05 11:25 | 36.24189 | 33.50881 | 34958 ft | 537 kts | 128° |
| 2026-05-05 11:25 | 36.19569 | 33.58115 | 34950 ft | 536 kts | 129° |
| 2026-05-05 11:26 | 36.14940 | 33.65351 | 34958 ft | 535 kts | 129° |
| 2026-05-05 11:26 | 36.10302 | 33.72583 | 34964 ft | 535 kts | 129° |
| 2026-05-05 11:27 | 36.05696 | 33.79752 | 34946 ft | 535 kts | 129° |
| 2026-05-05 11:27 | 36.01033 | 33.86994 | 34961 ft | 535 kts | 129° |
| 2026-05-05 11:28 | 35.96441 | 33.94113 | 34967 ft | 534 kts | 129° |
| 2026-05-05 11:28 | 35.91392 | 34.00804 | 34965 ft | 531 kts | 141° |
| 2026-05-05 11:29 | 35.85521 | 34.06252 | 34966 ft | 527 kts | 152° |
| 2026-05-05 11:29 | 35.79196 | 34.10817 | 34970 ft | 526 kts | 153° |
| 2026-05-05 11:30 | 35.72886 | 34.15404 | 34968 ft | 527 kts | 152° |
| 2026-05-05 11:30 | 35.66597 | 34.20041 | 34963 ft | 527 kts | 152° |
| 2026-05-05 11:31 | 35.61351 | 34.23869 | 34963 ft | 527 kts | 153° |
| 2026-05-05 11:31 | 35.55034 | 34.28461 | 34969 ft | 527 kts | 153° |
| 2026-05-05 11:32 | 35.48704 | 34.33061 | 34960 ft | 528 kts | 153° |
| 2026-05-05 11:32 | 35.42386 | 34.37648 | 34960 ft | 527 kts | 153° |
| 2026-05-05 11:33 | 35.36081 | 34.42219 | 34963 ft | 526 kts | 153° |
| 2026-05-05 11:33 | 35.29789 | 34.46771 | 34963 ft | 525 kts | 153° |
| 2026-05-05 11:34 | 35.23509 | 34.51305 | 34966 ft | 523 kts | 153° |
| 2026-05-05 11:34 | 35.17240 | 34.55824 | 34962 ft | 522 kts | 154° |
| 2026-05-05 11:35 | 35.11043 | 34.60328 | 34956 ft | 521 kts | 149° |
| 2026-05-05 11:35 | 35.08283 | 34.63317 | 34975 ft | 529 kts | 131° |
| 2026-05-05 11:35 | 35.06309 | 34.67118 | 34975 ft | 534 kts | 114° |
| 2026-05-05 11:35 | 35.05210 | 34.71398 | 34986 ft | 536 kts | 100° |
| 2026-05-05 11:36 | 35.04907 | 34.75917 | 34972 ft | 535 kts | 84° |
| 2026-05-05 11:36 | 35.06217 | 34.84799 | 34987 ft | 533 kts | 76° |
| 2026-05-05 11:37 | 35.07724 | 34.93687 | 34981 ft | 537 kts | 77° |
| 2026-05-05 11:37 | 35.09137 | 35.02678 | 34978 ft | 540 kts | 78° |
| 2026-05-05 11:38 | 35.10486 | 35.11699 | 34969 ft | 540 kts | 78° |
| 2026-05-05 11:38 | 35.11822 | 35.20726 | 34968 ft | 540 kts | 78° |
| 2026-05-05 11:39 | 35.13160 | 35.29751 | 34970 ft | 538 kts | 78° |
| 2026-05-05 11:39 | 35.14491 | 35.38750 | 34967 ft | 537 kts | 78° |
| 2026-05-05 11:40 | 35.15811 | 35.47727 | 34966 ft | 537 kts | 79° |
| 2026-05-05 11:40 | 35.17126 | 35.56720 | 34964 ft | 536 kts | 79° |
| 2026-05-05 11:41 | 35.18423 | 35.65638 | 34968 ft | 536 kts | 79° |
| 2026-05-05 11:41 | 35.19721 | 35.74604 | 34967 ft | 536 kts | 79° |
| 2026-05-05 11:42 | 35.21015 | 35.83579 | 34979 ft | 536 kts | 79° |
| 2026-05-05 11:42 | 35.21674 | 35.92608 | 34959 ft | 532 kts | 101° |
| 2026-05-05 11:42 | 35.20722 | 35.96941 | 34977 ft | 528 kts | 115° |
| 2026-05-05 11:43 | 35.19018 | 36.00895 | 34967 ft | 524 kts | 129° |
| 2026-05-05 11:43 | 35.14114 | 36.07387 | 34974 ft | 522 kts | 139° |
| 2026-05-05 11:44 | 35.09041 | 36.13800 | 34969 ft | 525 kts | 138° |
| 2026-05-05 11:44 | 35.04068 | 36.20247 | 34960 ft | 517 kts | 138° |
| 2026-05-05 11:45 | 34.99182 | 36.26627 | 34954 ft | 517 kts | 138° |
| 2026-05-05 11:45 | 34.94269 | 36.33023 | 34957 ft | 516 kts | 138° |
| 2026-05-05 11:46 | 34.89353 | 36.39402 | 34954 ft | 515 kts | 138° |
| 2026-05-05 11:46 | 34.84446 | 36.45755 | 34955 ft | 514 kts | 138° |
| 2026-05-05 11:47 | 34.79550 | 36.52084 | 34953 ft | 513 kts | 139° |
| 2026-05-05 11:47 | 34.74664 | 36.58389 | 34960 ft | 512 kts | 139° |
| 2026-05-05 11:48 | 34.67361 | 36.67790 | 34950 ft | 511 kts | 139° |
| 2026-05-05 11:48 | 34.62460 | 36.74068 | 34944 ft | 512 kts | 140° |
| 2026-05-05 11:49 | 34.57551 | 36.80347 | 34938 ft | 512 kts | 140° |
| 2026-05-05 11:49 | 34.52638 | 36.86622 | 34934 ft | 513 kts | 140° |
| 2026-05-05 11:50 | 34.47711 | 36.92905 | 34931 ft | 514 kts | 140° |
| 2026-05-05 11:50 | 34.42783 | 36.99179 | 34930 ft | 515 kts | 140° |
| 2026-05-05 11:51 | 34.37854 | 37.05442 | 34909 ft | 516 kts | 140° |
| 2026-05-05 11:51 | 34.32889 | 37.11742 | 34914 ft | 517 kts | 140° |
| 2026-05-05 11:52 | 34.27918 | 37.18038 | 34910 ft | 517 kts | 140° |
| 2026-05-05 11:52 | 34.22809 | 37.24117 | 34912 ft | 510 kts | 148° |
| 2026-05-05 11:53 | 34.17057 | 37.28968 | 34913 ft | 499 kts | 158° |
| 2026-05-05 11:53 | 34.10907 | 37.32711 | 34905 ft | 493 kts | 162° |
| 2026-05-05 11:54 | 34.04731 | 37.36321 | 34903 ft | 494 kts | 162° |
| 2026-05-05 11:54 | 33.98602 | 37.39944 | 34898 ft | 495 kts | 162° |
| 2026-05-05 11:55 | 33.92422 | 37.43623 | 34914 ft | 495 kts | 162° |
| 2026-05-05 11:55 | 33.86246 | 37.47299 | 34903 ft | 495 kts | 162° |
| 2026-05-05 11:56 | 33.80068 | 37.50968 | 34912 ft | 496 kts | 162° |
| 2026-05-05 11:56 | 33.73911 | 37.54616 | 34906 ft | 496 kts | 162° |
| 2026-05-05 11:57 | 33.67694 | 37.58294 | 34903 ft | 496 kts | 162° |
| 2026-05-05 11:57 | 33.61525 | 37.61939 | 34907 ft | 496 kts | 162° |
| 2026-05-05 11:58 | 33.55317 | 37.65600 | 34906 ft | 496 kts | 163° |
| 2026-05-05 11:58 | 33.49099 | 37.69178 | 34902 ft | 495 kts | 163° |
| 2026-05-05 11:59 | 33.42877 | 37.72739 | 34903 ft | 495 kts | 163° |
| 2026-05-05 11:59 | 33.36658 | 37.76293 | 34900 ft | 495 kts | 163° |
| 2026-05-05 12:00 | 33.30456 | 37.79828 | 34905 ft | 494 kts | 163° |
| 2026-05-05 12:00 | 33.24248 | 37.83361 | 34898 ft | 493 kts | 163° |
| 2026-05-05 12:01 | 33.18085 | 37.86865 | 34900 ft | 492 kts | 163° |
| 2026-05-05 12:01 | 33.11908 | 37.90372 | 34896 ft | 491 kts | 163° |
| 2026-05-05 12:02 | 33.05729 | 37.93874 | 34910 ft | 491 kts | 164° |
| 2026-05-05 12:02 | 32.99558 | 37.97366 | 34904 ft | 490 kts | 164° |
| 2026-05-05 12:03 | 32.93439 | 38.00838 | 34904 ft | 490 kts | 163° |
| 2026-05-05 12:03 | 32.87334 | 38.04481 | 34910 ft | 490 kts | 162° |
| 2026-05-05 12:04 | 32.81245 | 38.08111 | 34909 ft | 489 kts | 163° |
| 2026-05-05 12:04 | 32.75147 | 38.11728 | 34912 ft | 489 kts | 163° |
| 2026-05-05 12:05 | 32.69060 | 38.15333 | 34921 ft | 489 kts | 163° |
| 2026-05-05 12:05 | 32.62969 | 38.18937 | 34934 ft | 489 kts | 163° |
| 2026-05-05 12:06 | 32.56907 | 38.22519 | 34931 ft | 489 kts | 163° |
| 2026-05-05 12:06 | 32.50815 | 38.26114 | 34938 ft | 489 kts | 163° |
| 2026-05-05 12:07 | 32.44725 | 38.29703 | 34946 ft | 488 kts | 164° |
| 2026-05-05 12:07 | 32.38660 | 38.33271 | 34952 ft | 488 kts | 164° |
| 2026-05-05 12:08 | 32.32583 | 38.36840 | 34953 ft | 487 kts | 164° |
| 2026-05-05 12:08 | 32.26521 | 38.40396 | 34951 ft | 486 kts | 164° |
| 2026-05-05 12:09 | 32.20460 | 38.43946 | 34958 ft | 485 kts | 164° |
| 2026-05-05 12:09 | 32.14420 | 38.47478 | 34961 ft | 484 kts | 165° |
| 2026-05-05 12:10 | 32.08395 | 38.50996 | 34967 ft | 483 kts | 165° |
| 2026-05-05 12:10 | 32.02373 | 38.54507 | 34970 ft | 482 kts | 165° |
| 2026-05-05 12:11 | 31.96412 | 38.57978 | 34968 ft | 481 kts | 165° |
| 2026-05-05 12:11 | 31.90417 | 38.61463 | 34975 ft | 481 kts | 165° |
| 2026-05-05 12:12 | 31.84423 | 38.64959 | 34989 ft | 481 kts | 165° |
| 2026-05-05 12:12 | 31.78427 | 38.68461 | 34986 ft | 480 kts | 165° |
| 2026-05-05 12:13 | 31.72491 | 38.72173 | 34982 ft | 494 kts | 154° |
| 2026-05-05 12:13 | 31.69914 | 38.74962 | 34987 ft | 516 kts | 140° |
| 2026-05-05 12:13 | 31.67854 | 38.78496 | 34988 ft | 537 kts | 125° |
| 2026-05-05 12:14 | 31.65145 | 38.86806 | 34994 ft | 548 kts | 117° |
| 2026-05-05 12:14 | 31.63063 | 38.93852 | 34988 ft | 549 kts | 117° |
| 2026-05-05 12:15 | 31.60039 | 39.03630 | 34984 ft | 548 kts | 118° |
| 2026-05-05 12:15 | 31.57789 | 39.10639 | 34982 ft | 547 kts | 119° |
| 2026-05-05 12:16 | 31.55107 | 39.18929 | 34987 ft | 547 kts | 119° |
| 2026-05-05 12:16 | 31.52396 | 39.27324 | 34990 ft | 547 kts | 119° |
| 2026-05-05 12:17 | 31.49720 | 39.35608 | 34985 ft | 547 kts | 119° |
| 2026-05-05 12:17 | 31.47020 | 39.43949 | 34984 ft | 546 kts | 119° |
| 2026-05-05 12:18 | 31.44315 | 39.52278 | 34974 ft | 546 kts | 119° |
| 2026-05-05 12:18 | 31.41616 | 39.60586 | 34979 ft | 546 kts | 119° |
| 2026-05-05 12:19 | 31.38924 | 39.68905 | 34973 ft | 546 kts | 119° |
| 2026-05-05 12:19 | 31.36235 | 39.77206 | 34979 ft | 546 kts | 119° |
| 2026-05-05 12:20 | 31.33554 | 39.85455 | 34971 ft | 546 kts | 119° |
| 2026-05-05 12:20 | 31.30830 | 39.93807 | 34971 ft | 545 kts | 119° |
| 2026-05-05 12:21 | 31.28141 | 40.02033 | 34964 ft | 545 kts | 119° |
| 2026-05-05 12:21 | 31.25431 | 40.10302 | 34961 ft | 544 kts | 119° |
| 2026-05-05 12:22 | 31.22720 | 40.18553 | 34958 ft | 544 kts | 119° |
| 2026-05-05 12:22 | 31.20000 | 40.26813 | 34958 ft | 544 kts | 119° |
| 2026-05-05 12:23 | 31.17278 | 40.35054 | 34957 ft | 544 kts | 119° |
| 2026-05-05 12:23 | 31.14548 | 40.43301 | 34948 ft | 543 kts | 120° |
| 2026-05-05 12:24 | 31.11815 | 40.51537 | 34952 ft | 543 kts | 120° |
| 2026-05-05 12:24 | 31.09096 | 40.59711 | 34949 ft | 543 kts | 120° |
| 2026-05-05 12:25 | 31.06351 | 40.67940 | 34955 ft | 543 kts | 120° |
| 2026-05-05 12:25 | 31.03610 | 40.76139 | 34949 ft | 543 kts | 120° |
| 2026-05-05 12:26 | 31.00854 | 40.84363 | 34932 ft | 543 kts | 120° |
| 2026-05-05 12:26 | 30.98120 | 40.92503 | 34936 ft | 543 kts | 120° |
| 2026-05-05 12:27 | 30.95363 | 41.00692 | 34933 ft | 542 kts | 120° |
| 2026-05-05 12:27 | 30.92560 | 41.08833 | 34927 ft | 537 kts | 124° |
| 2026-05-05 12:28 | 30.88899 | 41.16239 | 34932 ft | 522 kts | 134° |
| 2026-05-05 12:28 | 30.84393 | 41.22711 | 34937 ft | 510 kts | 142° |
| 2026-05-05 12:29 | 30.79604 | 41.28830 | 34937 ft | 511 kts | 143° |
| 2026-05-05 12:29 | 30.74812 | 41.34973 | 34943 ft | 513 kts | 142° |
| 2026-05-05 12:30 | 30.70025 | 41.41163 | 34943 ft | 515 kts | 142° |
| 2026-05-05 12:30 | 30.65270 | 41.47325 | 34951 ft | 515 kts | 142° |
| 2026-05-05 12:31 | 30.60484 | 41.53518 | 34941 ft | 515 kts | 142° |
| 2026-05-05 12:31 | 30.55689 | 41.59708 | 34943 ft | 514 kts | 142° |
| 2026-05-05 12:32 | 30.50892 | 41.65888 | 34939 ft | 514 kts | 142° |
| 2026-05-05 12:32 | 30.46113 | 41.72034 | 34943 ft | 513 kts | 142° |
| 2026-05-05 12:33 | 30.41349 | 41.78150 | 34946 ft | 513 kts | 142° |
| 2026-05-05 12:33 | 30.36569 | 41.84278 | 34948 ft | 513 kts | 142° |
| 2026-05-05 12:34 | 30.31773 | 41.90418 | 34954 ft | 513 kts | 142° |
| 2026-05-05 12:34 | 30.26977 | 41.96549 | 34951 ft | 514 kts | 142° |
| 2026-05-05 12:35 | 30.22167 | 42.02687 | 34951 ft | 514 kts | 142° |
| 2026-05-05 12:35 | 30.17363 | 42.08811 | 34950 ft | 514 kts | 142° |
| 2026-05-05 12:36 | 30.12563 | 42.14933 | 34951 ft | 516 kts | 141° |
| 2026-05-05 12:36 | 30.08340 | 42.21798 | 34958 ft | 532 kts | 129° |
| 2026-05-05 12:37 | 30.05120 | 42.29617 | 34969 ft | 543 kts | 120° |
| 2026-05-05 12:37 | 30.02328 | 42.37715 | 34941 ft | 543 kts | 120° |
| 2026-05-05 12:38 | 29.99555 | 42.45737 | 34945 ft | 542 kts | 120° |
| 2026-05-05 12:38 | 29.96706 | 42.53790 | 34941 ft | 541 kts | 120° |
| 2026-05-05 12:39 | 29.93845 | 42.61788 | 34939 ft | 540 kts | 121° |
| 2026-05-05 12:39 | 29.90977 | 42.69789 | 34937 ft | 539 kts | 121° |
| 2026-05-05 12:40 | 29.88120 | 42.77753 | 34933 ft | 538 kts | 121° |
| 2026-05-05 12:40 | 29.85249 | 42.85742 | 34934 ft | 538 kts | 120° |
| 2026-05-05 12:41 | 29.82379 | 42.93713 | 34930 ft | 538 kts | 120° |
| 2026-05-05 12:41 | 29.79508 | 43.01665 | 34925 ft | 538 kts | 121° |
| 2026-05-05 12:42 | 29.76630 | 43.09619 | 34930 ft | 539 kts | 121° |
| 2026-05-05 12:42 | 29.73757 | 43.17544 | 34920 ft | 539 kts | 120° |
| 2026-05-05 12:43 | 29.70864 | 43.25504 | 34915 ft | 540 kts | 120° |
| 2026-05-05 12:43 | 29.67959 | 43.33486 | 34910 ft | 540 kts | 120° |
| 2026-05-05 12:44 | 29.65052 | 43.41456 | 34910 ft | 541 kts | 120° |
| 2026-05-05 12:44 | 29.62024 | 43.49333 | 34911 ft | 535 kts | 126° |
| 2026-05-05 12:45 | 29.58122 | 43.56485 | 34913 ft | 524 kts | 134° |
| 2026-05-05 12:45 | 29.53909 | 43.63330 | 34902 ft | 525 kts | 134° |
| 2026-05-05 12:46 | 29.49712 | 43.70196 | 34916 ft | 526 kts | 134° |
| 2026-05-05 12:46 | 29.45530 | 43.77106 | 34905 ft | 527 kts | 133° |
| 2026-05-05 12:47 | 29.41385 | 43.83972 | 34902 ft | 527 kts | 134° |
| 2026-05-05 12:47 | 29.37197 | 43.90894 | 34902 ft | 527 kts | 134° |
| 2026-05-05 12:48 | 29.33008 | 43.97799 | 34896 ft | 527 kts | 134° |
| 2026-05-05 12:48 | 29.28820 | 44.04689 | 34896 ft | 528 kts | 134° |
| 2026-05-05 12:49 | 29.24614 | 44.11597 | 34889 ft | 528 kts | 134° |
| 2026-05-05 12:49 | 29.20432 | 44.18453 | 34890 ft | 528 kts | 134° |
| 2026-05-05 12:50 | 29.16225 | 44.25342 | 34889 ft | 528 kts | 134° |
| 2026-05-05 12:50 | 29.12018 | 44.32217 | 34889 ft | 528 kts | 134° |
| 2026-05-05 12:51 | 29.07798 | 44.39104 | 34881 ft | 528 kts | 134° |
| 2026-05-05 12:51 | 29.03579 | 44.45977 | 34887 ft | 528 kts | 134° |
| 2026-05-05 12:52 | 28.99344 | 44.52866 | 34883 ft | 528 kts | 134° |
| 2026-05-05 12:52 | 28.95123 | 44.59719 | 34875 ft | 528 kts | 134° |
| 2026-05-05 12:53 | 28.90919 | 44.66538 | 34872 ft | 528 kts | 134° |
| 2026-05-05 12:53 | 28.86755 | 44.73489 | 34865 ft | 533 kts | 129° |
| 2026-05-05 12:54 | 28.83438 | 44.81172 | 34867 ft | 544 kts | 119° |
| 2026-05-05 12:54 | 28.82019 | 44.85180 | 34867 ft | 545 kts | 119° |
| 2026-05-05 12:55 | 28.79221 | 44.93171 | 34877 ft | 545 kts | 119° |
| 2026-05-05 12:55 | 28.76367 | 45.01171 | 34869 ft | 545 kts | 119° |
| 2026-05-05 12:56 | 28.73471 | 45.09162 | 34862 ft | 544 kts | 120° |
| 2026-05-05 12:56 | 28.70568 | 45.17124 | 34857 ft | 544 kts | 120° |
| 2026-05-05 12:57 | 28.67666 | 45.25079 | 34858 ft | 543 kts | 120° |
| 2026-05-05 12:57 | 28.64761 | 45.33033 | 34847 ft | 543 kts | 120° |
| 2026-05-05 12:58 | 28.61869 | 45.40936 | 34849 ft | 543 kts | 120° |
| 2026-05-05 12:58 | 28.58955 | 45.48883 | 34849 ft | 543 kts | 120° |
| 2026-05-05 12:59 | 28.56534 | 45.55470 | 34851 ft | 543 kts | 120° |
| 2026-05-05 12:59 | 28.53610 | 45.63410 | 34842 ft | 544 kts | 120° |
| 2026-05-05 13:00 | 28.49232 | 45.75272 | 34836 ft | 544 kts | 120° |
| 2026-05-05 13:01 | 28.43362 | 45.91113 | 34819 ft | 543 kts | 120° |
| 2026-05-05 13:01 | 28.40425 | 45.99018 | 34818 ft | 543 kts | 120° |
| 2026-05-05 13:02 | 28.37483 | 46.06918 | 34790 ft | 543 kts | 120° |
| 2026-05-05 13:02 | 28.34274 | 46.14623 | 34802 ft | 534 kts | 128° |
| 2026-05-05 13:03 | 28.30420 | 46.21813 | 34805 ft | 532 kts | 130° |
| 2026-05-05 13:03 | 28.26530 | 46.28957 | 34801 ft | 532 kts | 130° |
| 2026-05-05 13:04 | 28.22663 | 46.36147 | 34799 ft | 533 kts | 129° |
| 2026-05-05 13:04 | 28.18842 | 46.43300 | 34807 ft | 534 kts | 129° |
| 2026-05-05 13:05 | 28.14989 | 46.50511 | 34802 ft | 534 kts | 129° |
| 2026-05-05 13:05 | 28.11128 | 46.57714 | 34788 ft | 535 kts | 129° |
| 2026-05-05 13:06 | 28.07250 | 46.64932 | 34788 ft | 535 kts | 129° |
| 2026-05-05 13:06 | 28.03370 | 46.72142 | 34778 ft | 536 kts | 129° |
| 2026-05-05 13:07 | 27.99511 | 46.79303 | 34766 ft | 536 kts | 129° |
| 2026-05-05 13:07 | 27.95622 | 46.86505 | 34764 ft | 536 kts | 129° |
| 2026-05-05 13:08 | 27.91727 | 46.93709 | 34766 ft | 536 kts | 129° |
| 2026-05-05 13:08 | 27.87830 | 47.00905 | 34765 ft | 536 kts | 129° |
| 2026-05-05 13:09 | 27.83929 | 47.08097 | 34761 ft | 537 kts | 129° |
| 2026-05-05 13:09 | 27.80105 | 47.15357 | 34759 ft | 539 kts | 128° |
| 2026-05-05 13:10 | 27.76347 | 47.22627 | 34754 ft | 539 kts | 128° |
| 2026-05-05 13:10 | 27.72549 | 47.29934 | 34750 ft | 539 kts | 128° |
| 2026-05-05 13:11 | 27.68734 | 47.37226 | 34749 ft | 539 kts | 129° |
| 2026-05-05 13:11 | 27.64906 | 47.44525 | 34743 ft | 540 kts | 129° |
| 2026-05-05 13:12 | 27.61076 | 47.51819 | 34735 ft | 540 kts | 129° |
| 2026-05-05 13:12 | 27.57270 | 47.59057 | 34741 ft | 540 kts | 129° |
| 2026-05-05 13:13 | 27.53445 | 47.66318 | 34733 ft | 540 kts | 129° |
| 2026-05-05 13:13 | 27.49586 | 47.73599 | 34731 ft | 539 kts | 129° |
| 2026-05-05 13:14 | 27.45736 | 47.80849 | 34717 ft | 539 kts | 129° |
| 2026-05-05 13:14 | 27.41886 | 47.88092 | 34714 ft | 539 kts | 129° |
| 2026-05-05 13:15 | 27.38029 | 47.95342 | 34706 ft | 538 kts | 129° |
| 2026-05-05 13:15 | 27.34229 | 48.02536 | 34722 ft | 539 kts | 128° |
| 2026-05-05 13:16 | 27.30781 | 48.10129 | 34718 ft | 547 kts | 119° |
| 2026-05-05 13:16 | 27.28401 | 48.18294 | 34714 ft | 554 kts | 112° |
| 2026-05-05 13:17 | 27.26285 | 48.26636 | 34709 ft | 554 kts | 112° |
| 2026-05-05 13:17 | 27.24133 | 48.34931 | 34705 ft | 553 kts | 112° |
| 2026-05-05 13:18 | 27.21931 | 48.43213 | 34696 ft | 553 kts | 112° |
| 2026-05-05 13:18 | 27.19715 | 48.51489 | 34693 ft | 552 kts | 112° |
| 2026-05-05 13:19 | 27.17516 | 48.59707 | 34700 ft | 552 kts | 112° |
| 2026-05-05 13:19 | 27.15304 | 48.67959 | 34696 ft | 551 kts | 112° |
| 2026-05-05 13:20 | 27.13090 | 48.76200 | 34692 ft | 550 kts | 112° |
| 2026-05-05 13:20 | 27.10740 | 48.84358 | 34691 ft | 544 kts | 118° |
| 2026-05-05 13:21 | 27.07371 | 48.91870 | 34698 ft | 534 kts | 128° |
| 2026-05-05 13:21 | 27.03132 | 48.98598 | 34709 ft | 526 kts | 135° |
| 2026-05-05 13:22 | 26.98680 | 49.05135 | 34705 ft | 527 kts | 134° |
| 2026-05-05 13:22 | 26.94264 | 49.11695 | 34702 ft | 528 kts | 134° |
| 2026-05-05 13:23 | 26.89867 | 49.18284 | 34699 ft | 529 kts | 134° |
| 2026-05-05 13:23 | 26.85464 | 49.24878 | 34700 ft | 529 kts | 134° |
| 2026-05-05 13:24 | 26.81035 | 49.31492 | 34694 ft | 529 kts | 134° |
| 2026-05-05 13:24 | 26.76961 | 49.38409 | 34701 ft | 538 kts | 124° |
| 2026-05-05 13:25 | 26.73940 | 49.46140 | 34703 ft | 547 kts | 114° |
| 2026-05-05 13:25 | 26.71624 | 49.54244 | 34699 ft | 548 kts | 112° |
| 2026-05-05 13:26 | 26.69274 | 49.62293 | 34696 ft | 547 kts | 114° |
| 2026-05-05 13:26 | 26.66839 | 49.70348 | 34698 ft | 546 kts | 114° |
| 2026-05-05 13:27 | 26.64386 | 49.78445 | 34700 ft | 546 kts | 114° |
| 2026-05-05 13:27 | 26.61963 | 49.86451 | 34697 ft | 546 kts | 114° |
| 2026-05-05 13:28 | 26.59569 | 49.94530 | 34699 ft | 547 kts | 113° |
| 2026-05-05 13:28 | 26.57129 | 50.02569 | 34708 ft | 545 kts | 115° |
| 2026-05-05 13:29 | 26.54684 | 50.10534 | 34719 ft | 545 kts | 114° |
| 2026-05-05 13:29 | 26.52264 | 50.18566 | 34724 ft | 545 kts | 114° |
| 2026-05-05 13:30 | 26.49837 | 50.26597 | 34733 ft | 544 kts | 114° |
| 2026-05-05 13:30 | 26.47404 | 50.34602 | 34736 ft | 544 kts | 114° |
| 2026-05-05 13:31 | 26.45035 | 50.42584 | 34747 ft | 544 kts | 112° |
| 2026-05-05 13:31 | 26.42805 | 50.50704 | 34746 ft | 544 kts | 112° |
| 2026-05-05 13:32 | 26.40568 | 50.58766 | 34746 ft | 544 kts | 112° |
| 2026-05-05 13:32 | 26.38291 | 50.66817 | 34746 ft | 544 kts | 112° |
| 2026-05-05 13:33 | 26.36016 | 50.74845 | 34749 ft | 544 kts | 112° |
| 2026-05-05 13:33 | 26.33710 | 50.82832 | 34751 ft | 543 kts | 112° |
| 2026-05-05 13:34 | 26.31378 | 50.90869 | 34751 ft | 543 kts | 113° |
| 2026-05-05 13:34 | 26.28486 | 50.98578 | 34745 ft | 534 kts | 124° |
| 2026-05-05 13:35 | 26.24806 | 51.05734 | 34754 ft | 533 kts | 126° |
| 2026-05-05 13:35 | 26.21132 | 51.12943 | 34757 ft | 534 kts | 125° |
| 2026-05-05 13:36 | 26.19333 | 51.16519 | 34113 ft | 545 kts | 124° |
| 2026-05-05 13:36 | 26.17467 | 51.20231 | 33234 ft | 549 kts | 124° |
| 2026-05-05 13:36 | 26.15596 | 51.23958 | 32304 ft | 550 kts | 124° |
| 2026-05-05 13:36 | 26.13729 | 51.27671 | 31367 ft | 551 kts | 123° |
| 2026-05-05 13:37 | 26.11851 | 51.31394 | 30406 ft | 552 kts | 123° |
| 2026-05-05 13:37 | 26.09970 | 51.35120 | 29667 ft | 548 kts | 123° |
| 2026-05-05 13:37 | 26.08109 | 51.38800 | 28929 ft | 542 kts | 123° |
| 2026-05-05 13:37 | 26.06264 | 51.42444 | 28263 ft | 536 kts | 122° |
| 2026-05-05 13:38 | 26.04465 | 51.45991 | 27643 ft | 529 kts | 122° |
| 2026-05-05 13:38 | 26.02668 | 51.49528 | 27026 ft | 523 kts | 122° |
| 2026-05-05 13:38 | 26.00886 | 51.53031 | 26421 ft | 517 kts | 122° |
| 2026-05-05 13:38 | 25.99135 | 51.56472 | 25830 ft | 511 kts | 122° |
| 2026-05-05 13:39 | 25.97391 | 51.59899 | 25233 ft | 506 kts | 121° |
| 2026-05-05 13:39 | 25.96245 | 51.62149 | 24833 ft | 503 kts | 121° |
| 2026-05-05 13:39 | 25.93950 | 51.66653 | 24028 ft | 497 kts | 121° |
| 2026-05-05 13:39 | 25.92824 | 51.68861 | 23639 ft | 494 kts | 121° |
| 2026-05-05 13:40 | 25.90579 | 51.73261 | 22842 ft | 486 kts | 120° |
| 2026-05-05 13:40 | 25.89490 | 51.75438 | 22377 ft | 483 kts | 120° |
| 2026-05-05 13:40 | 25.87903 | 51.78696 | 21826 ft | 477 kts | 119° |
| 2026-05-05 13:40 | 25.86340 | 51.81926 | 21164 ft | 473 kts | 119° |
| 2026-05-05 13:41 | 25.84784 | 51.85121 | 20625 ft | 467 kts | 119° |
| 2026-05-05 13:41 | 25.83272 | 51.88305 | 20058 ft | 462 kts | 117° |
| 2026-05-05 13:41 | 25.81890 | 51.91507 | 19448 ft | 454 kts | 118° |
| 2026-05-05 13:41 | 25.80067 | 51.94304 | 18857 ft | 446 kts | 137° |
| 2026-05-05 13:42 | 25.77590 | 51.96245 | 18332 ft | 440 kts | 155° |
| 2026-05-05 13:42 | 25.74717 | 51.97331 | 17719 ft | 434 kts | 171° |
| 2026-05-05 13:42 | 25.71699 | 51.97584 | 17101 ft | 429 kts | 183° |
| 2026-05-05 13:42 | 25.68799 | 51.97165 | 16535 ft | 423 kts | 197° |
| 2026-05-05 13:43 | 25.66120 | 51.95937 | 15990 ft | 413 kts | 208° |
| 2026-05-05 13:43 | 25.63565 | 51.94478 | 15448 ft | 410 kts | 211° |
| 2026-05-05 13:43 | 25.61168 | 51.92796 | 14921 ft | 407 kts | 217° |
| 2026-05-05 13:43 | 25.58936 | 51.90875 | 14376 ft | 405 kts | 223° |
| 2026-05-05 13:44 | 25.56811 | 51.88812 | 13840 ft | 404 kts | 223° |
| 2026-05-05 13:44 | 25.54726 | 51.86786 | 13281 ft | 404 kts | 223° |
| 2026-05-05 13:44 | 25.52618 | 51.84762 | 13046 ft | 394 kts | 223° |
| 2026-05-05 13:44 | 25.50595 | 51.82833 | 12867 ft | 384 kts | 223° |
| 2026-05-05 13:45 | 25.48513 | 51.81028 | 12557 ft | 378 kts | 217° |
| 2026-05-05 13:45 | 25.46255 | 51.79517 | 12032 ft | 380 kts | 211° |
| 2026-05-05 13:45 | 25.44046 | 51.78153 | 11745 ft | 374 kts | 211° |
| 2026-05-05 13:45 | 25.41807 | 51.76772 | 11657 ft | 361 kts | 211° |
| 2026-05-05 13:46 | 25.39694 | 51.75456 | 11515 ft | 337 kts | 212° |
| 2026-05-05 13:46 | 25.37741 | 51.74230 | 11306 ft | 312 kts | 212° |
| 2026-05-05 13:46 | 25.35896 | 51.73069 | 10894 ft | 297 kts | 212° |
| 2026-05-05 13:46 | 25.34118 | 51.71948 | 10322 ft | 290 kts | 212° |
| 2026-05-05 13:47 | 25.32354 | 51.70900 | 9679 ft | 288 kts | 203° |
| 2026-05-05 13:47 | 25.30376 | 51.70603 | 8902 ft | 291 kts | 173° |
| 2026-05-05 13:47 | 25.28443 | 51.71248 | 8169 ft | 290 kts | 158° |
| 2026-05-05 13:47 | 25.26573 | 51.72096 | 7509 ft | 288 kts | 158° |
| 2026-05-05 13:48 | 25.24730 | 51.72919 | 6895 ft | 285 kts | 158° |
| 2026-05-05 13:48 | 25.22892 | 51.73735 | 6316 ft | 287 kts | 157° |
| 2026-05-05 13:48 | 25.21053 | 51.74548 | 5918 ft | 280 kts | 157° |
| 2026-05-05 13:48 | 25.19257 | 51.75339 | 5450 ft | 277 kts | 157° |
| 2026-05-05 13:49 | 25.17491 | 51.76115 | 4976 ft | 276 kts | 157° |
| 2026-05-05 13:49 | 25.15666 | 51.76693 | 4638 ft | 273 kts | 179° |
| 2026-05-05 13:49 | 25.13846 | 51.76299 | 4408 ft | 266 kts | 207° |
| 2026-05-05 13:49 | 25.12390 | 51.75111 | 4047 ft | 256 kts | 230° |
| 2026-05-05 13:50 | 25.11289 | 51.73614 | 3729 ft | 246 kts | 234° |
| 2026-05-05 13:50 | 25.10563 | 51.71980 | 3407 ft | 231 kts | 264° |
| 2026-05-05 13:50 | 25.10761 | 51.70296 | 3165 ft | 217 kts | 301° |
| 2026-05-05 13:50 | 25.11745 | 51.69135 | 2884 ft | 204 kts | 332° |
| 2026-05-05 13:51 | 25.12955 | 51.68398 | 2688 ft | 201 kts | 331° |
| 2026-05-05 13:51 | 25.14167 | 51.67711 | 2613 ft | 193 kts | 337° |
| 2026-05-05 13:51 | 25.15411 | 51.67142 | 2282 ft | 193 kts | 339° |
| 2026-05-05 13:51 | 25.16641 | 51.66602 | 1931 ft | 185 kts | 339° |
| 2026-05-05 13:52 | 25.17776 | 51.66103 | 1679 ft | 172 kts | 339° |
| 2026-05-05 13:52 | 25.18851 | 51.65629 | 1448 ft | 154 kts | 339° |
| 2026-05-05 13:52 | 25.19819 | 51.65203 | 1235 ft | 148 kts | 339° |
| 2026-05-05 13:52 | 25.20767 | 51.64784 | 983 ft | 151 kts | 340° |
| 2026-05-05 13:53 | 25.21736 | 51.64362 | 810 ft | 148 kts | 341° |
| 2026-05-05 13:53 | 25.22685 | 51.63943 | 633 ft | 146 kts | 340° |
| 2026-05-05 13:53 | 25.23633 | 51.63515 | 447 ft | 146 kts | 341° |
| 2026-05-05 13:53 | 25.24566 | 51.63104 | 250 ft | 143 kts | 343° |
| 2026-05-05 13:54 | 25.25493 | 51.62709 | 91 ft | 144 kts | 341° |
| 2026-05-05 13:54 | 25.26411 | 51.62314 | 28 ft | 132 kts | 341° |
| 2026-05-05 13:54 | 25.27113 | 51.62004 | 31 ft | 75 kts | 339° |
| 2026-05-05 13:54 | 25.27324 | 51.61895 | 27 ft | 15 kts | 325° |
| 2026-05-05 13:55 | 25.27402 | 51.61822 | 28 ft | 15 kts | 312° |
| 2026-05-05 13:55 | 25.27434 | 51.61779 | 28 ft | 7 kts | 306° |
| 2026-05-05 13:55 | 25.27462 | 51.61737 | 28 ft | 7 kts | 308° |
| 2026-05-05 13:55 | 25.27493 | 51.61694 | 27 ft | 8 kts | 308° |
| 2026-05-05 13:56 | 25.27528 | 51.61646 | 27 ft | 8 kts | 308° |
| 2026-05-05 13:56 | 25.27547 | 51.61588 | 27 ft | 8 kts | 265° |
| 2026-05-05 13:56 | 25.27528 | 51.61517 | 27 ft | 11 kts | 249° |
| 2026-05-05 13:56 | 25.27487 | 51.61404 | 27 ft | 22 kts | 248° |
| 2026-05-05 13:57 | 25.27422 | 51.61225 | 27 ft | 26 kts | 248° |
| 2026-05-05 13:57 | 25.27354 | 51.61039 | 27 ft | 26 kts | 248° |
| 2026-05-05 13:57 | 25.27287 | 51.60853 | 27 ft | 26 kts | 248° |
| 2026-05-05 13:57 | 25.27220 | 51.60667 | 27 ft | 26 kts | 249° |
| 2026-05-05 13:58 | 25.27152 | 51.60482 | 27 ft | 26 kts | 248° |
| 2026-05-05 13:58 | 25.27086 | 51.60298 | 26 ft | 23 kts | 248° |
| 2026-05-05 13:58 | 25.27058 | 51.60221 | 30 ft | 8 kts | 247° |
| 2026-05-05 13:58 | 25.27021 | 51.60209 | 27 ft | 6 kts | 166° |
| 2026-05-05 13:59 | 25.26843 | 51.60287 | 31 ft | 25 kts | 158° |
| 2026-05-05 13:59 | 25.26685 | 51.60357 | 31 ft | 15 kts | 158° |
| 2026-05-05 14:00 | 25.26621 | 51.60440 | 26 ft | 8 kts | 65° |
| 2026-05-05 14:00 | 25.26637 | 51.60479 | 26 ft | 8 kts | 67° |
| 2026-05-05 14:00 | 25.26670 | 51.60571 | 27 ft | 12 kts | 69° |
| 2026-05-05 14:00 | 25.26678 | 51.60665 | 27 ft | 13 kts | 104° |
| 2026-05-05 14:01 | 25.26646 | 51.60756 | 27 ft | 13 kts | 112° |
| 2026-05-05 14:01 | 25.26612 | 51.60845 | 27 ft | 13 kts | 113° |
| 2026-05-05 14:01 | 25.26575 | 51.60929 | 27 ft | 7 kts | 123° |
| 2026-05-05 14:01 | 25.26563 | 51.60967 | 27 ft | 6 kts | 93° |
| 2026-05-05 14:02 | 25.26575 | 51.61010 | 27 ft | 6 kts | 66° |
| 2026-05-05 14:02 | 25.26591 | 51.61051 | 27 ft | 2 kts | 66° |